Time;durP1;ratioP1;P1;durP2;ratioP2;P2;SDS_P1;SDS_P2;PMS_P1;PMS_P2;Temp;Humidity;BMP_temperature;BMP_pressure;BME280_temperature;BME280_humidity;BME280_pressure;Samples;Min_cycle;Max_cycle;Signal;HPM_P1;HPM_P2
2023/01/28 00:11:00;;;;;;;52.90;15.07;;;;;;;0.01;100.00;99346.84;15310835;19;20010;-88
2023/01/28 00:27:54;;;;;;;42.40;15.88;;;;;;;-0.03;100.00;99328.44;15338791;19;20018;-90
2023/01/28 00:38:53;;;;;;;28.45;15.63;;;;;;;-0.09;100.00;99334.03;15307384;19;20022;-90
2023/01/28 00:44:48;;;;;;;18.85;13.10;;;;;;;-0.08;100.00;99322.50;15308550;19;20020;-88
2023/01/28 00:50:19;;;;;;;15.70;11.07;;;;;;;-0.13;100.00;99329.78;15308462;19;20478;-93
2023/01/28 00:55:51;;;;;;;18.17;12.18;;;;;;;-0.15;100.00;99323.69;15302198;19;20018;-92
2023/01/28 01:01:19;;;;;;;18.52;11.65;;;;;;;-0.18;100.00;99329.16;15312668;19;20370;-88
2023/01/28 01:07:03;;;;;;;22.52;12.60;;;;;;;-0.23;100.00;99324.06;15306407;19;20496;-88
2023/01/28 01:17:58;;;;;;;18.65;12.93;;;;;;;-0.24;100.00;99330.31;15308714;19;20007;-88
2023/01/28 01:23:32;;;;;;;18.98;12.65;;;;;;;-0.25;100.00;99333.00;15303154;19;20034;-88
2023/01/28 01:29:04;;;;;;;19.88;12.75;;;;;;;-0.28;100.00;99341.06;15302333;19;20007;-88
2023/01/28 01:34:43;;;;;;;18.17;12.38;;;;;;;-0.28;100.00;99338.44;15299411;19;20018;-89
2023/01/28 01:40:13;;;;;;;18.27;12.25;;;;;;;-0.30;100.00;99332.38;15302594;19;20014;-87
2023/01/28 01:45:45;;;;;;;18.42;13.10;;;;;;;-0.32;100.00;99335.94;15305079;19;20358;-88
2023/01/28 01:57:02;;;;;;;16.17;11.45;;;;;;;-0.31;100.00;99339.44;15308805;19;20015;-89
2023/01/28 02:02:33;;;;;;;16.50;10.88;;;;;;;-0.32;100.00;99351.84;15309555;19;20102;-89
2023/01/28 02:13:47;;;;;;;13.25;7.75;;;;;;;-0.31;100.00;99352.69;15312319;19;20006;-88
2023/01/28 02:19:49;;;;;;;11.80;7.10;;;;;;;-0.28;100.00;99349.03;15314872;19;20081;-89
2023/01/28 02:25:35;;;;;;;10.52;6.07;;;;;;;-0.34;100.00;99347.50;15308093;19;20011;-90
2023/01/28 02:31:16;;;;;;;7.93;4.97;;;;;;;-0.34;100.00;99343.09;15309880;19;20638;-91
2023/01/28 02:36:47;;;;;;;7.55;5.70;;;;;;;-0.32;100.00;99346.53;15306712;19;20014;-90
2023/01/28 02:42:23;;;;;;;;;;;;;;;-0.38;100.00;99345.94;15313369;19;20010;-89
2023/01/28 02:48:05;;;;;;;8.50;5.82;;;;;;;-0.32;100.00;99341.25;15370247;19;20259;-89
2023/01/28 02:53:42;;;;;;;8.52;5.90;;;;;;;-0.34;100.00;99334.28;15313463;19;20474;-88
2023/01/28 02:59:35;;;;;;;9.57;5.88;;;;;;;-0.37;100.00;99327.34;15310305;19;20014;-90
2023/01/28 03:05:09;;;;;;;8.60;5.38;;;;;;;-0.35;100.00;99320.19;15305304;19;20397;-88
2023/01/28 03:10:38;;;;;;;7.22;5.70;;;;;;;-0.37;100.00;99310.59;15305331;19;20391;-89
2023/01/28 03:39:07;;;;;;;12.02;8.70;;;;;;;-0.51;100.00;99335.91;15337059;19;20014;-89
2023/01/28 03:44:54;;;;;;;12.73;8.77;;;;;;;-0.55;100.00;99333.47;15349205;19;20411;-88
2023/01/28 03:50:25;;;;;;;11.32;7.97;;;;;;;-0.56;100.00;99343.19;15331406;19;20017;-90
2023/01/28 03:55:58;;;;;;;11.05;8.13;;;;;;;-0.62;100.00;99341.66;15336136;19;20402;-89
2023/01/28 04:01:26;;;;;;;10.43;9.32;;;;;;;-0.67;100.00;99351.63;15336726;19;20010;-88
2023/01/28 04:07:01;;;;;;;11.20;8.43;;;;;;;-0.73;100.00;99356.31;15332419;19;20015;-88
2023/01/28 04:12:58;;;;;;;11.90;8.85;;;;;;;-0.71;100.00;99357.13;15345029;19;20010;-88
2023/01/28 04:18:29;;;;;;;12.07;8.10;;;;;;;-0.74;100.00;99352.78;15332660;19;20011;-89
2023/01/28 04:23:55;;;;;;;12.57;9.18;;;;;;;-0.76;100.00;99356.44;15333642;19;20046;-91
2023/01/28 04:29:26;;;;;;;9.60;7.40;;;;;;;-0.80;100.00;99355.72;15329469;19;20014;-90
2023/01/28 04:35:19;;;;;;;13.95;9.23;;;;;;;-0.81;100.00;99354.84;15310277;19;20015;-93
2023/01/28 04:40:58;;;;;;;11.95;8.07;;;;;;;-0.88;100.00;99355.19;15318848;19;20094;-91
2023/01/28 04:46:25;;;;;;;13.30;8.63;;;;;;;-0.95;100.00;99360.75;15316754;19;20011;-89
2023/01/28 04:52:12;;;;;;;9.65;7.55;;;;;;;-0.98;100.00;99365.31;15345601;19;20014;-89
2023/01/28 04:58:07;;;;;;;11.15;7.60;;;;;;;-0.98;100.00;99371.44;15321443;19;20014;-89
2023/01/28 05:04:04;;;;;;;11.77;8.20;;;;;;;-0.99;100.00;99372.34;15319867;19;20358;-90
2023/01/28 05:09:37;;;;;;;11.20;7.97;;;;;;;-1.00;100.00;99383.84;15316737;19;20050;-92
2023/01/28 05:15:15;;;;;;;11.80;7.80;;;;;;;-1.00;100.00;99375.94;15314450;19;20018;-89
2023/01/28 05:20:44;;;;;;;10.07;7.38;;;;;;;-1.04;100.00;99373.47;15316540;19;20470;-91
2023/01/28 05:26:17;;;;;;;13.48;8.90;;;;;;;-1.08;100.00;99372.75;15313120;19;20015;-88
2023/01/28 05:31:50;;;;;;;9.27;7.30;;;;;;;-1.17;100.00;99373.13;15315865;19;20017;-88
2023/01/28 05:37:22;;;;;;;13.05;8.00;;;;;;;-1.17;100.00;99383.72;15313661;19;20024;-88
2023/01/28 05:42:46;;;;;;;10.32;7.72;;;;;;;-1.19;100.00;99382.91;15313578;19;20018;-89
2023/01/28 05:48:36;;;;;;;9.43;8.02;;;;;;;-1.20;100.00;99395.28;15311829;19;20014;-88
2023/01/28 05:54:26;;;;;;;9.60;7.50;;;;;;;-1.17;100.00;99399.59;15315498;19;20010;-92
2023/01/28 06:00:15;;;;;;;8.70;6.78;;;;;;;-1.20;100.00;99400.59;15370954;19;20332;-88
2023/01/28 06:05:44;;;;;;;8.38;6.65;;;;;;;-1.19;100.00;99412.00;15317046;19;20021;-88
2023/01/28 06:11:09;;;;;;;7.43;6.00;;;;;;;-1.23;100.00;99413.06;15318301;19;20022;-87
2023/01/28 06:16:38;;;;;;;12.50;6.63;;;;;;;-1.24;100.00;99420.13;15305359;19;20007;-87
2023/01/28 06:22:12;;;;;;;8.83;7.10;;;;;;;-1.23;100.00;99416.56;15306994;19;20565;-88
2023/01/28 06:27:37;;;;;;;9.07;6.70;;;;;;;-1.25;100.00;99416.63;15310009;19;20347;-89
2023/01/28 06:33:06;;;;;;;7.75;5.60;;;;;;;-1.28;100.00;99423.81;15325186;19;20019;-93
2023/01/28 06:38:38;;;;;;;10.00;6.30;;;;;;;-1.32;100.00;99427.50;15357331;19;20015;-87
2023/01/28 06:49:52;;;;;;;6.82;4.90;;;;;;;-1.25;100.00;99437.78;15303179;19;20018;-88
2023/01/28 06:55:26;;;;;;;8.05;4.65;;;;;;;-1.29;100.00;99436.19;15299495;19;20027;-89
2023/01/28 07:00:51;;;;;;;6.18;5.28;;;;;;;-1.31;100.00;99440.66;15303514;19;20018;-89
2023/01/28 07:06:26;;;;;;;9.50;6.97;;;;;;;-1.31;100.00;99443.31;15300447;19;20014;-91
2023/01/28 07:11:55;;;;;;;9.50;6.50;;;;;;;-1.33;100.00;99442.50;15301145;19;20027;-88
2023/01/28 07:17:28;;;;;;;8.02;5.68;;;;;;;-1.36;100.00;99454.97;15298102;19;20458;-91
2023/01/28 07:22:53;;;;;;;6.63;5.93;;;;;;;-1.37;100.00;99435.63;15299853;19;20014;-89
2023/01/28 07:28:31;;;;;;;7.78;5.30;;;;;;;-1.33;100.00;99454.88;15305203;19;20017;-89
2023/01/28 07:34:02;;;;;;;6.22;5.10;;;;;;;-1.39;100.00;99434.81;15271335;19;20011;-88
2023/01/28 07:39:24;;;;;;;8.23;5.20;;;;;;;-1.40;100.00;99435.75;15338437;19;20007;-89
2023/01/28 07:44:57;;;;;;;9.73;5.05;;;;;;;-1.42;100.00;99432.28;15314554;19;20010;-87
2023/01/28 07:50:27;;;;;;;5.93;4.70;;;;;;;-1.46;100.00;99434.22;15314845;19;20018;-88
2023/01/28 07:56:03;;;;;;;6.05;4.20;;;;;;;-1.49;100.00;99436.97;15314493;19;20022;-87
2023/01/28 08:01:31;;;;;;;4.53;4.07;;;;;;;-1.54;100.00;99438.94;15316095;19;20094;-88
2023/01/28 08:07:02;;;;;;;6.45;4.53;;;;;;;-1.59;100.00;99436.44;15335924;19;20010;-88
2023/01/28 08:12:45;;;;;;;4.88;4.10;;;;;;;-1.62;100.00;99443.63;15332924;19;20378;-89
2023/01/28 08:18:18;;;;;;;8.07;4.20;;;;;;;-1.62;100.00;99447.16;15319890;19;20036;-88
2023/01/28 08:23:48;;;;;;;6.00;3.90;;;;;;;-1.62;100.00;99447.16;15330597;19;20359;-87
2023/01/28 08:29:19;;;;;;;4.20;3.40;;;;;;;-1.62;100.00;99444.50;15341243;19;20386;-87
2023/01/28 08:45:53;;;;;;;5.85;3.28;;;;;;;-1.53;100.00;99453.88;15310883;19;20454;-87
2023/01/28 08:51:22;;;;;;;4.93;3.60;;;;;;;-1.45;100.00;99450.91;15319161;19;20087;-88
2023/01/28 08:56:50;;;;;;;6.32;4.10;;;;;;;-1.39;100.00;99458.63;15314202;19;20038;-91
2023/01/28 09:02:37;;;;;;;4.88;3.45;;;;;;;-1.34;100.00;99467.22;15323720;19;20413;-88
2023/01/28 09:08:13;;;;;;;4.47;3.40;;;;;;;-1.30;100.00;99455.59;15342762;19;20010;-92
2023/01/28 09:13:44;;;;;;;4.80;2.97;;;;;;;-1.26;100.00;99454.56;15352387;19;20011;-87
2023/01/28 09:24:54;;;;;;;2.05;1.50;;;;;;;-1.29;100.00;99438.81;15320337;19;19987;-90
2023/01/28 09:30:22;;;;;;;2.28;1.60;;;;;;;-1.30;100.00;99447.69;15316740;19;20393;-87
2023/01/28 09:35:54;;;;;;;3.88;1.67;;;;;;;-1.30;100.00;99454.75;15311394;19;20018;-88
2023/01/28 09:41:33;;;;;;;4.22;1.60;;;;;;;-1.29;100.00;99454.69;15338039;19;20054;-91
2023/01/28 09:47:10;;;;;;;1.85;1.20;;;;;;;-1.29;100.00;99454.69;15306994;19;20371;-87
2023/01/28 09:52:45;;;;;;;2.78;1.40;;;;;;;-1.28;100.00;99461.69;15321768;19;20024;-89
2023/01/28 09:58:17;;;;;;;1.63;1.35;;;;;;;-1.33;100.00;99468.94;15324896;19;19998;-86
2023/01/28 10:03:55;;;;;;;2.65;1.73;;;;;;;-1.31;100.00;99467.09;15320231;19;20022;-87
2023/01/28 10:09:29;;;;;;;2.35;1.33;;;;;;;-1.27;100.00;99479.28;15306808;19;20424;-88
2023/01/28 10:15:05;;;;;;;4.25;1.40;;;;;;;-1.19;100.00;99475.47;15305820;19;20727;-87
2023/01/28 10:20:39;;;;;;;1.45;1.10;;;;;;;-1.28;100.00;99472.28;15309689;19;20022;-88
2023/01/28 10:26:34;;;;;;;2.03;1.40;;;;;;;-1.31;100.00;99464.44;15311219;19;20017;-88
2023/01/28 10:32:16;;;;;;;2.50;1.25;;;;;;;-1.34;100.00;99469.84;15311945;19;20030;-88
2023/01/28 10:38:06;;;;;;;2.42;1.50;;;;;;;-1.26;100.00;99473.09;15342127;19;20027;-88
2023/01/28 10:43:41;;;;;;;3.38;1.90;;;;;;;-1.29;100.00;99475.84;15324504;19;20014;-87
2023/01/28 10:49:24;;;;;;;4.95;2.35;;;;;;;-1.40;100.00;99485.97;15303678;19;20007;-87
2023/01/28 10:55:05;;;;;;;3.45;2.22;;;;;;;-1.35;100.00;99484.00;15303969;19;20471;-93
2023/01/28 11:00:44;;;;;;;3.70;1.90;;;;;;;-1.30;100.00;99474.13;15311144;19;20462;-91
2023/01/28 11:06:25;;;;;;;3.85;2.30;;;;;;;-1.16;100.00;99475.34;15308661;19;20014;-90
2023/01/28 11:11:53;;;;;;;3.47;2.20;;;;;;;-1.09;100.00;99467.13;15310965;19;20022;-88
2023/01/28 11:17:26;;;;;;;9.90;6.32;;;;;;;-1.00;100.00;99468.50;15306848;19;20023;-88
2023/01/28 11:22:51;;;;;;;13.85;11.52;;;;;;;-0.90;100.00;99476.94;15318137;19;20019;-87
2023/01/28 11:28:23;;;;;;;5.03;3.90;;;;;;;-0.87;100.00;99481.25;15295484;19;20018;-87
2023/01/28 11:33:58;;;;;;;13.60;8.45;;;;;;;-0.80;100.00;99477.44;15294679;19;20454;-84
2023/01/28 11:39:27;;;;;;;5.28;4.43;;;;;;;-0.73;100.00;99470.94;15300377;19;20021;-84
2023/01/28 11:44:57;;;;;;;4.75;2.97;;;;;;;-0.67;100.00;99476.00;15352413;19;20022;-83
2023/01/28 11:50:36;;;;;;;13.77;10.95;;;;;;;-0.63;100.00;99477.56;15334509;19;20031;-88
2023/01/28 11:56:18;;;;;;;7.07;5.40;;;;;;;-0.60;100.00;99473.97;15304809;19;20018;-87
2023/01/28 12:01:57;;;;;;;5.30;3.78;;;;;;;-0.55;100.00;99457.88;15310215;19;20030;-86
2023/01/28 12:07:45;;;;;;;4.28;3.85;;;;;;;-0.53;100.00;99469.28;15303115;19;20037;-86
2023/01/28 12:13:34;;;;;;;6.65;5.85;;;;;;;-0.51;100.00;99443.56;15307767;19;20386;-86
2023/01/28 12:19:22;;;;;;;4.70;3.25;;;;;;;-0.45;100.00;99453.03;15293904;19;20014;-89
2023/01/28 12:25:08;;;;;;;14.32;11.25;;;;;;;-0.41;100.00;99444.03;15318746;19;20014;-90
2023/01/28 12:30:50;;;;;;;8.38;5.57;;;;;;;-0.39;100.00;99445.69;15324501;19;20014;-88
2023/01/28 12:42:10;;;;;;;20.77;13.38;;;;;;;-0.33;100.00;99445.44;15320012;19;20719;-86
2023/01/28 12:47:41;;;;;;;23.63;17.92;;;;;;;-0.26;100.00;99445.16;15314051;19;20342;-87
2023/01/28 12:53:31;;;;;;;8.35;4.00;;;;;;;-0.34;100.00;99432.25;15320416;19;20078;-86
2023/01/28 12:59:06;;;;;;;3.65;2.33;;;;;;;-0.33;100.00;99437.50;15314543;19;20090;-88
2023/01/28 13:04:41;;;;;;;2.42;1.35;;;;;;;-0.34;100.00;99427.81;15317580;19;20019;-88
2023/01/28 13:10:12;;;;;;;3.13;1.80;;;;;;;-0.32;100.00;99436.56;15308818;19;20469;-88
2023/01/28 13:15:47;;;;;;;2.55;1.52;;;;;;;-0.32;100.00;99436.56;15314447;19;20024;-86
2023/01/28 13:21:19;;;;;;;2.75;1.58;;;;;;;-0.36;100.00;99442.91;15314057;19;20010;-88
2023/01/28 13:26:52;;;;;;;1.52;1.27;;;;;;;-0.50;100.00;99438.22;15298337;19;20034;-87
2023/01/28 13:32:35;;;;;;;2.78;1.38;;;;;;;-0.65;100.00;99441.53;15289231;19;20534;-88
2023/01/28 13:38:00;;;;;;;2.17;1.40;;;;;;;-0.59;100.00;99453.63;15286684;19;20018;-86
2023/01/28 13:43:38;;;;;;;2.10;1.40;;;;;;;-0.74;100.00;99457.78;15288711;19;20019;-89
2023/01/28 13:49:07;;;;;;;4.32;1.65;;;;;;;-0.75;100.00;99448.97;15331007;19;20025;-88
2023/01/28 13:54:36;;;;;;;3.45;1.95;;;;;;;-0.80;100.00;99474.78;15286327;19;20801;-86
2023/01/28 14:06:11;;;;;;;4.13;1.50;;;;;;;-1.01;100.00;99487.97;15296796;19;20495;-86
2023/01/28 14:12:05;;;;;;;2.67;1.70;;;;;;;-1.06;100.00;99471.41;15296334;19;20017;-88
2023/01/28 14:17:41;;;;;;;3.88;1.85;;;;;;;-1.04;100.00;99482.81;15287754;19;20015;-88
2023/01/28 14:23:18;;;;;;;2.55;1.58;;;;;;;-1.15;100.00;99482.38;15293525;19;20041;-87
2023/01/28 14:28:56;;;;;;;4.40;1.70;;;;;;;-1.12;100.00;99469.03;15286283;19;20082;-90
2023/01/28 14:34:34;;;;;;;3.58;1.80;;;;;;;-1.16;100.00;99468.28;15287613;19;20023;-88
2023/01/28 14:40:04;;;;;;;3.15;1.70;;;;;;;-1.16;100.00;99475.34;15292923;19;20034;-86
2023/01/28 14:45:41;;;;;;;3.08;2.10;;;;;;;-1.14;100.00;99460.28;15302217;19;20010;-84
2023/01/28 14:51:35;;;;;;;3.55;2.00;;;;;;;-1.17;100.00;99478.91;15183720;19;2004685;-87
2023/01/28 14:57:20;;;;;;;5.55;1.92;;;;;;;-1.16;100.00;99470.06;15313680;19;20021;-84
2023/01/28 15:02:45;;;;;;;2.92;2.00;;;;;;;-1.16;100.00;99470.06;15345020;19;20336;-87
2023/01/28 15:08:09;;;;;;;2.67;1.90;;;;;;;-1.16;100.00;99465.63;15317451;19;20014;-86
2023/01/28 15:13:40;;;;;;;2.97;1.83;;;;;;;-1.19;100.00;99465.78;15309962;19;20036;-88
2023/01/28 15:19:04;;;;;;;3.38;2.00;;;;;;;-1.22;100.00;99459.72;15308656;19;20022;-88
2023/01/28 15:24:36;;;;;;;2.63;2.28;;;;;;;-1.22;100.00;99460.59;15315921;19;20023;-88
2023/01/28 15:30:10;;;;;;;2.92;2.00;;;;;;;-1.20;100.00;99449.94;15310930;19;20018;-87
2023/01/28 15:35:53;;;;;;;3.42;2.17;;;;;;;-1.21;100.00;99445.56;15303014;19;20014;-87
2023/01/28 15:41:21;;;;;;;2.95;2.10;;;;;;;-1.22;100.00;99449.13;15307754;19;20423;-88
2023/01/28 15:47:08;;;;;;;4.47;2.30;;;;;;;-1.28;100.00;99444.97;15318950;19;20010;-88
2023/01/28 15:52:39;;;;;;;5.13;2.67;;;;;;;-1.30;100.00;99445.03;15296059;19;20015;-89
2023/01/28 15:58:04;;;;;;;3.83;2.55;;;;;;;-1.31;100.00;99466.25;15288382;19;20014;-89
2023/01/28 16:03:29;;;;;;;3.65;2.42;;;;;;;-1.35;100.00;99475.22;15291821;19;20047;-85
2023/01/28 16:09:02;;;;;;;4.15;2.30;;;;;;;-1.41;100.00;99456.00;15303810;19;20377;-87
2023/01/28 16:14:31;;;;;;;3.15;2.30;;;;;;;-1.45;100.00;99472.06;15295203;19;20029;-87
2023/01/28 16:19:59;;;;;;;3.40;2.58;;;;;;;-1.47;100.00;99472.13;15293518;19;20022;-91
2023/01/28 16:25:31;;;;;;;4.30;2.47;;;;;;;-1.47;100.00;99476.56;15300894;19;20043;-91
2023/01/28 16:30:57;;;;;;;2.83;2.50;;;;;;;-1.51;100.00;99485.53;15312827;19;20018;-89
2023/01/28 16:36:23;;;;;;;4.55;2.60;;;;;;;-1.61;100.00;99475.31;15313441;19;20035;-90
2023/01/28 16:41:58;;;;;;;4.75;2.83;;;;;;;-1.76;100.00;99483.81;15318663;19;20010;-88
2023/01/28 16:47:32;;;;;;;3.95;2.83;;;;;;;-1.78;100.00;99483.00;15317801;19;20388;-88
2023/01/28 16:53:02;;;;;;;5.47;3.17;;;;;;;-1.78;100.00;99483.00;15316767;19;20078;-89
2023/01/28 16:58:36;;;;;;;4.20;2.65;;;;;;;-1.87;100.00;99492.09;15315451;19;20042;-89
2023/01/28 17:04:21;;;;;;;3.90;3.10;;;;;;;-1.90;100.00;99477.25;15319860;19;20019;-89
2023/01/28 17:15:39;;;;;;;3.53;2.50;;;;;;;-2.05;100.00;99499.78;15309609;19;20070;-88
2023/01/28 17:21:14;;;;;;;4.13;2.78;;;;;;;-2.09;100.00;99506.09;15313851;19;20041;-89
2023/01/28 17:26:39;;;;;;;3.63;2.63;;;;;;;-2.17;100.00;99519.56;15313104;19;20017;-89
2023/01/28 17:32:07;;;;;;;2.90;1.98;;;;;;;-2.27;100.00;99502.31;15310436;19;20013;-90
2023/01/28 17:37:38;;;;;;;3.65;1.90;;;;;;;-2.22;100.00;99500.41;15307247;19;20010;-90
2023/01/28 17:43:04;;;;;;;4.20;3.50;;;;;;;-2.14;100.00;99486.94;15320064;19;20022;-89
2023/01/28 17:48:32;;;;;;;3.50;1.92;;;;;;;-2.10;100.00;99482.41;15312351;19;20021;-89
2023/01/28 17:54:05;;;;;;;4.15;2.30;;;;;;;-2.05;100.00;99483.06;15299230;19;20026;-92
2023/01/28 17:59:37;;;;;;;3.92;2.10;;;;;;;-2.01;100.00;99487.34;15293414;19;20018;-88
2023/01/28 18:05:12;;;;;;;4.78;2.80;;;;;;;-2.03;100.00;99499.72;15301557;19;20014;-92
2023/01/28 18:11:01;;;;;;;2.17;1.75;;;;;;;-2.03;100.00;99499.72;15323093;19;19999;-93
2023/01/28 18:16:29;;;;;;;4.18;2.63;;;;;;;-1.99;100.00;99514.56;15337513;19;20022;-88
2023/01/28 18:21:57;;;;;;;2.97;2.00;;;;;;;-2.18;100.00;99532.81;15296012;19;20633;-85
2023/01/28 18:27:22;;;;;;;2.95;2.17;;;;;;;-2.28;100.00;99557.81;15286358;19;20029;-89
2023/01/28 18:32:56;;;;;;;2.92;1.83;;;;;;;-2.36;100.00;99574.78;15295303;19;20014;-86
2023/01/28 18:38:27;;;;;;;4.30;2.03;;;;;;;-2.40;100.00;99572.28;15299460;19;20078;-87
2023/01/28 18:44:05;;;;;;;4.28;2.38;;;;;;;-2.41;100.00;99571.44;15288204;19;20030;-85
2023/01/28 18:49:37;;;;;;;5.00;2.30;;;;;;;-2.48;100.00;99599.78;15289985;19;20380;-84
2023/01/28 18:55:01;;;;;;;5.25;2.40;;;;;;;-2.45;100.00;99587.41;15290319;19;20028;-87
2023/01/28 19:00:27;;;;;;;3.92;2.22;;;;;;;-2.46;100.00;99573.34;15287287;19;20422;-88
2023/01/28 19:05:56;;;;;;;3.13;2.30;;;;;;;-2.38;100.00;99576.63;15301022;19;20596;-86
2023/01/28 19:11:27;;;;;;;4.80;2.53;;;;;;;-2.42;100.00;99597.88;15314317;19;20022;-88
2023/01/28 19:16:45;;;;;;;4.00;2.10;;;;;;;-2.40;100.00;99601.31;15294193;19;20019;-88
2023/01/28 19:22:15;;;;;;;3.40;2.20;;;;;;;-2.41;100.00;99594.34;15298357;19;20014;-87
2023/01/28 19:27:56;;;;;;;2.67;2.47;;;;;;;-2.37;100.00;99585.38;15289600;19;20019;-87
2023/01/28 19:33:21;;;;;;;2.85;2.55;;;;;;;-2.37;100.00;99585.38;15291709;19;20018;-88
2023/01/28 19:39:04;;;;;;;3.47;2.20;;;;;;;-2.36;100.00;99587.13;15292486;19;20002;-87
2023/01/28 19:44:32;;;;;;;4.22;2.22;;;;;;;-2.36;100.00;99566.00;15302112;19;20018;-88
2023/01/28 19:49:56;;;;;;;2.83;2.40;;;;;;;-2.33;100.00;99576.47;15298455;19;20018;-88
2023/01/28 19:55:24;;;;;;;3.38;2.83;;;;;;;-2.30;100.00;99573.72;15291349;19;20030;-90
2023/01/28 20:00:49;;;;;;;2.80;2.40;;;;;;;-2.31;100.00;99574.63;15310111;19;20014;-88
2023/01/28 20:06:17;;;;;;;3.45;2.83;;;;;;;-2.31;100.00;99556.16;15316637;19;20022;-89
2023/01/28 20:11:47;;;;;;;3.25;2.80;;;;;;;-2.28;100.00;99542.84;15335766;19;20025;-91
2023/01/28 20:17:17;;;;;;;4.15;3.30;;;;;;;-2.26;100.00;99571.84;15324452;19;20049;-89
2023/01/28 20:22:38;;;;;;;2.95;2.60;;;;;;;-2.28;100.00;99568.38;15316593;19;20023;-88
2023/01/28 20:28:07;;;;;;;3.35;2.80;;;;;;;-2.38;100.00;99570.47;15319917;19;20018;-87
2023/01/28 20:33:33;;;;;;;3.92;3.03;;;;;;;-2.41;100.00;99573.22;15327866;19;20023;-89
2023/01/28 20:39:07;;;;;;;3.40;3.03;;;;;;;-2.42;100.00;99563.56;15315231;19;20057;-85
2023/01/28 20:44:44;;;;;;;3.40;3.10;;;;;;;-2.45;100.00;99566.31;15315714;19;20093;-86
2023/01/28 20:50:14;;;;;;;3.85;3.22;;;;;;;-2.51;100.00;99562.09;15317273;19;20286;-86
2023/01/28 20:55:33;;;;;;;3.10;2.80;;;;;;;-2.58;100.00;99569.34;15311133;19;20010;-87
2023/01/28 21:01:03;;;;;;;4.90;3.38;;;;;;;-2.56;100.00;99579.84;15305950;19;20014;-86
2023/01/28 21:06:32;;;;;;;3.90;3.50;;;;;;;-2.60;100.00;99572.97;15310679;19;20024;-85
2023/01/28 21:12:04;;;;;;;5.70;4.10;;;;;;;-2.58;100.00;99581.66;15311289;19;20035;-85
2023/01/28 21:17:31;;;;;;;3.90;3.60;;;;;;;-2.61;100.00;99595.81;15304924;19;20014;-85
2023/01/28 21:22:57;;;;;;;3.70;3.40;;;;;;;-2.61;100.00;99601.09;15313738;19;20011;-94
2023/01/28 21:28:36;;;;;;;4.90;3.72;;;;;;;-2.65;100.00;99586.31;15366030;19;20143;-86
2023/01/28 21:34:04;;;;;;;4.60;3.65;;;;;;;-2.63;100.00;99589.72;15317938;19;20629;-86
2023/01/28 21:39:33;;;;;;;3.78;3.38;;;;;;;-2.63;100.00;99582.69;15317331;19;20058;-90
2023/01/28 21:44:59;;;;;;;3.72;3.42;;;;;;;-2.59;100.00;99585.25;15317425;19;20031;-92
2023/01/28 21:56:36;;;;;;;4.15;3.72;;;;;;;-2.57;100.00;99583.38;15310466;19;20715;-89
2023/01/28 22:02:02;;;;;;;4.55;4.15;;;;;;;-2.62;100.00;99588.81;15301591;19;20107;-89
2023/01/28 22:07:29;;;;;;;4.93;3.97;;;;;;;-2.64;100.00;99570.41;15311298;19;20090;-88
2023/01/28 22:12:59;;;;;;;4.38;3.85;;;;;;;-2.66;100.00;99563.47;15324408;19;20018;-84
2023/01/28 22:18:25;;;;;;;4.35;3.88;;;;;;;-2.68;100.00;99581.13;15298969;19;20328;-86
2023/01/28 22:23:54;;;;;;;4.60;3.90;;;;;;;-2.67;100.00;99567.88;15295329;19;20096;-85
2023/01/28 22:29:20;;;;;;;4.05;3.65;;;;;;;-2.70;100.00;99561.81;15296937;19;20014;-84
2023/01/28 22:34:45;;;;;;;4.30;3.90;;;;;;;-2.74;100.00;99554.91;15292467;19;20054;-86
2023/01/28 22:40:18;;;;;;;5.07;3.80;;;;;;;-2.90;100.00;99565.97;15290671;19;20042;-85
2023/01/28 22:45:44;;;;;;;4.60;3.97;;;;;;;-2.98;100.00;99568.84;15288264;19;20011;-85
2023/01/28 22:51:16;;;;;;;3.78;3.47;;;;;;;-2.96;100.00;99571.41;15288930;19;20010;-83
2023/01/28 22:56:45;;;;;;;4.38;3.80;;;;;;;-3.00;100.00;99569.81;15288680;19;20538;-84
2023/01/28 23:02:14;;;;;;;4.40;4.00;;;;;;;-3.01;100.00;99562.81;15285073;19;20030;-85
2023/01/28 23:07:33;;;;;;;4.57;4.18;;;;;;;-3.03;100.00;99575.16;15287913;19;20011;-86
2023/01/28 23:13:03;;;;;;;4.70;3.80;;;;;;;-3.07;100.00;99578.78;15289788;19;20027;-82
2023/01/28 23:24:20;;;;;;;4.40;4.00;;;;;;;-3.08;100.00;99574.44;15283311;19;20767;-84
2023/01/28 23:29:47;;;;;;;4.70;4.22;;;;;;;-3.16;100.00;99570.25;15275467;19;20023;-84
2023/01/28 23:35:20;;;;;;;5.13;4.10;;;;;;;-3.21;100.00;99564.25;15274349;19;20342;-84
2023/01/28 23:40:45;;;;;;;4.68;4.05;;;;;;;-3.23;100.00;99552.88;15285272;19;20422;-85
2023/01/28 23:46:13;;;;;;;4.43;4.03;;;;;;;-3.27;100.00;99554.75;15287172;19;20478;-83
2023/01/28 23:51:51;;;;;;;5.28;4.13;;;;;;;-3.35;100.00;99555.91;15290310;19;20014;-85
2023/01/28 23:57:15;;;;;;;5.35;4.85;;;;;;;-3.41;100.00;99560.44;15281415;19;20871;-84
